Time;durP1;ratioP1;P1;durP2;ratioP2;P2;SDS_P1;SDS_P2;PMS_P1;PMS_P2;Temp;Humidity;BMP_temperature;BMP_pressure;BME280_temperature;BME280_humidity;BME280_pressure;Samples;Min_cycle;Max_cycle;Signal;HPM_P1;HPM_P2
2023/12/05 00:01:20;;;;;;;3.15;1.80;;;20.80;49.30;;;;;;5037791;28;20404;-68
2023/12/05 00:03:46;;;;;;;2.47;1.73;;;20.70;49.20;;;;;;5040621;28;20041;-68
2023/12/05 00:06:12;;;;;;;2.65;2.00;;;20.70;49.30;;;;;;5038793;28;20469;-67
2023/12/05 00:08:38;;;;;;;3.13;2.05;;;20.70;49.30;;;;;;5038622;28;20122;-68
2023/12/05 00:11:07;;;;;;;2.38;1.73;;;20.70;49.30;;;;;;5038434;28;20088;-65
2023/12/05 00:13:34;;;;;;;2.80;1.92;;;20.70;49.30;;;;;;5037695;28;20035;-64
2023/12/05 00:16:00;;;;;;;2.97;1.80;;;20.60;49.30;;;;;;5036626;28;20025;-64
2023/12/05 00:18:26;;;;;;;2.97;1.90;;;20.60;49.30;;;;;;5036004;28;20022;-65
2023/12/05 00:20:52;;;;;;;3.03;1.90;;;20.60;49.30;;;;;;5045630;28;20021;-64
2023/12/05 00:23:18;;;;;;;2.20;1.70;;;20.60;49.90;;;;;;5038881;28;20111;-65
2023/12/05 00:25:43;;;;;;;2.53;1.63;;;20.60;49.40;;;;;;5037555;28;20037;-65
2023/12/05 00:28:10;;;;;;;2.70;1.60;;;20.60;49.40;;;;;;5039423;28;20033;-64
2023/12/05 00:30:35;;;;;;;2.50;1.70;;;20.50;49.40;;;;;;5039264;28;20555;-64
2023/12/05 00:33:01;;;;;;;2.42;1.70;;;20.60;49.50;;;;;;5038801;28;20116;-65
2023/12/05 00:35:27;;;;;;;2.40;1.70;;;20.50;49.50;;;;;;5039294;28;20122;-66
2023/12/05 00:37:52;;;;;;;2.50;1.83;;;20.50;49.50;;;;;;5039313;28;20468;-65
2023/12/05 00:40:18;;;;;;;2.38;1.63;;;20.50;49.50;;;;;;5035719;28;20037;-65
2023/12/05 00:42:43;;;;;;;2.58;1.77;;;20.50;49.50;;;;;;5039113;28;20079;-64
2023/12/05 00:45:12;;;;;;;3.10;2.00;;;20.50;49.50;;;;;;5040831;28;20119;-64
2023/12/05 00:47:38;;;;;;;2.22;1.70;;;20.40;49.50;;;;;;5042711;28;20037;-64
2023/12/05 00:50:04;;;;;;;3.28;1.90;;;20.50;49.60;;;;;;5042510;28;20508;-65
2023/12/05 00:52:30;;;;;;;2.80;1.80;;;20.40;49.60;;;;;;5042099;28;20068;-64
2023/12/05 00:54:56;;;;;;;2.70;2.00;;;20.40;49.60;;;;;;5042353;28;20063;-64
2023/12/05 00:57:21;;;;;;;3.13;1.65;;;20.40;49.60;;;;;;5044665;28;20032;-64
2023/12/05 00:59:47;;;;;;;2.50;1.80;;;20.40;49.60;;;;;;5040306;28;20424;-64
2023/12/05 01:02:13;;;;;;;2.35;1.70;;;20.30;49.60;;;;;;5038947;28;20481;-64
2023/12/05 01:04:39;;;;;;;3.03;2.03;;;20.40;49.70;;;;;;5042795;28;20033;-65
2023/12/05 01:07:04;;;;;;;2.45;1.50;;;20.30;49.60;;;;;;5046508;28;20033;-64
2023/12/05 01:09:30;;;;;;;2.10;1.60;;;20.30;49.70;;;;;;5043839;28;20025;-64
2023/12/05 01:11:56;;;;;;;2.28;1.60;;;20.30;49.60;;;;;;5041881;28;20033;-66
2023/12/05 01:14:21;;;;;;;2.40;1.75;;;20.30;49.70;;;;;;5041671;28;20029;-64
2023/12/05 01:16:47;;;;;;;2.60;1.80;;;20.30;49.70;;;;;;5040035;28;20029;-65
2023/12/05 01:19:13;;;;;;;2.58;1.77;;;20.30;49.70;;;;;;5040043;28;20474;-64
2023/12/05 01:21:39;;;;;;;2.38;1.60;;;20.30;49.70;;;;;;5041671;28;20017;-64
2023/12/05 01:24:05;;;;;;;2.92;1.95;;;20.30;49.70;;;;;;5041169;28;20168;-64
2023/12/05 01:26:30;;;;;;;2.63;1.70;;;20.20;49.70;;;;;;5043155;28;20354;-63
2023/12/05 01:28:56;;;;;;;2.70;1.70;;;20.20;49.70;;;;;;5042330;28;20040;-64
2023/12/05 01:31:21;;;;;;;2.45;1.58;;;20.20;49.80;;;;;;5039152;28;20067;-64
2023/12/05 01:33:47;;;;;;;3.38;1.88;;;20.20;49.80;;;;;;5041134;28;20116;-65
2023/12/05 01:36:14;;;;;;;2.88;1.83;;;20.20;49.80;;;;;;5040962;28;20022;-65
2023/12/05 01:38:39;;;;;;;2.30;1.60;;;20.20;49.80;;;;;;5040556;28;20044;-66
2023/12/05 01:41:07;;;;;;;2.53;1.55;;;20.20;49.80;;;;;;5040378;28;20466;-65
2023/12/05 01:43:32;;;;;;;3.00;2.00;;;20.20;49.80;;;;;;5040073;28;20044;-65
2023/12/05 01:45:58;;;;;;;2.75;1.88;;;20.20;49.90;;;;;;5041607;28;20041;-64
2023/12/05 01:48:26;;;;;;;2.40;1.70;;;20.10;49.80;;;;;;5043363;28;20445;-64
2023/12/05 01:50:53;;;;;;;2.58;1.77;;;20.10;49.80;;;;;;5041680;28;20037;-64
2023/12/05 01:53:21;;;;;;;1.85;1.40;;;20.10;49.80;;;;;;5040448;28;20389;-66
2023/12/05 01:55:48;;;;;;;2.55;1.85;;;20.10;49.90;;;;;;5042032;28;20096;-65
2023/12/05 01:58:14;;;;;;;3.65;1.88;;;20.10;49.90;;;;;;5040999;28;20380;-65
2023/12/05 02:00:40;;;;;;;2.35;1.60;;;20.10;49.90;;;;;;5041337;28;20032;-65
2023/12/05 02:03:07;;;;;;;2.30;1.75;;;20.00;49.90;;;;;;5040397;28;20033;-64
2023/12/05 02:05:33;;;;;;;2.70;1.73;;;20.00;49.90;;;;;;5041332;28;20524;-64
2023/12/05 02:07:59;;;;;;;2.33;1.60;;;20.00;49.90;;;;;;5042049;28;20025;-65
2023/12/05 02:10:25;;;;;;;2.50;1.63;;;20.00;49.90;;;;;;5039582;28;20037;-65
2023/12/05 02:12:50;;;;;;;2.45;1.77;;;20.00;50.00;;;;;;5040605;28;20033;-65
2023/12/05 02:15:16;;;;;;;2.20;1.60;;;20.00;50.00;;;;;;5038889;28;20378;-64
2023/12/05 02:17:53;;;;;;;2.38;1.67;;;20.00;50.00;;;;;;5038348;28;20048;-64
2023/12/05 02:20:28;;;;;;;2.33;1.70;;;20.00;50.00;;;;;;5037870;28;20036;-65
2023/12/05 02:23:09;;;;;;;2.20;1.70;;;20.00;50.00;;;;;;5040862;28;20086;-64
2023/12/05 02:26:01;;;;;;;2.00;1.50;;;20.00;50.00;;;;;;5040442;28;20037;-65
2023/12/05 02:28:26;;;;;;;2.10;1.50;;;19.90;50.00;;;;;;5039530;28;20083;-64
2023/12/05 02:30:52;;;;;;;2.38;1.58;;;20.00;50.10;;;;;;5039940;28;20064;-69
2023/12/05 02:33:18;;;;;;;2.60;1.80;;;19.90;50.10;;;;;;5039517;28;20052;-69
2023/12/05 02:35:45;;;;;;;2.47;1.70;;;19.90;50.10;;;;;;5038361;28;20030;-68
2023/12/05 02:38:10;;;;;;;2.58;1.70;;;19.90;50.10;;;;;;5039853;28;20436;-69
2023/12/05 02:40:46;;;;;;;1.88;1.50;;;19.90;50.10;;;;;;5040461;28;20025;-68
2023/12/05 02:43:18;;;;;;;2.25;1.70;;;19.90;50.10;;;;;;5039365;28;20603;-68
2023/12/05 02:45:49;;;;;;;2.63;1.60;;;19.90;50.20;;;;;;5039910;28;20112;-68
2023/12/05 02:48:16;;;;;;;1.95;1.40;;;19.80;50.20;;;;;;5039274;28;20026;-68
2023/12/05 02:50:42;;;;;;;2.25;1.52;;;19.80;50.20;;;;;;5041345;28;20535;-68
2023/12/05 02:53:07;;;;;;;2.22;1.52;;;19.80;50.20;;;;;;5040906;28;20037;-69
2023/12/05 02:55:33;;;;;;;2.25;1.52;;;19.80;50.20;;;;;;5040413;28;20432;-68
2023/12/05 02:57:59;;;;;;;2.20;1.60;;;19.80;50.20;;;;;;5040723;28;20519;-69
2023/12/05 03:00:24;;;;;;;2.30;1.50;;;19.80;50.20;;;;;;5037132;28;20029;-69
2023/12/05 03:02:50;;;;;;;2.20;1.60;;;19.80;50.30;;;;;;5038754;28;20478;-68
2023/12/05 03:05:17;;;;;;;2.28;1.55;;;19.80;50.30;;;;;;5038286;28;20037;-68
2023/12/05 03:07:42;;;;;;;2.13;1.48;;;19.80;50.20;;;;;;5039255;28;20509;-68
2023/12/05 03:10:08;;;;;;;1.65;1.30;;;19.80;50.30;;;;;;5039123;28;20022;-68
2023/12/05 03:12:33;;;;;;;2.60;1.73;;;19.80;50.30;;;;;;5038095;28;20021;-68
2023/12/05 03:15:00;;;;;;;1.83;1.33;;;19.80;50.30;;;;;;5039026;28;20116;-69
2023/12/05 03:17:26;;;;;;;2.08;1.50;;;19.80;50.30;;;;;;5039256;28;20032;-68
2023/12/05 03:19:51;;;;;;;1.85;1.35;;;19.70;50.40;;;;;;5037427;28;20446;-69
2023/12/05 03:22:17;;;;;;;1.90;1.23;;;19.70;50.40;;;;;;5037002;28;20029;-68
2023/12/05 03:24:43;;;;;;;2.08;1.50;;;19.70;50.50;;;;;;5039142;28;20033;-68
2023/12/05 03:27:08;;;;;;;1.77;1.33;;;19.70;50.50;;;;;;5039067;28;20485;-68
2023/12/05 03:29:34;;;;;;;2.15;1.50;;;19.60;50.50;;;;;;5039547;28;20030;-68
2023/12/05 03:32:00;;;;;;;2.30;1.50;;;19.60;50.60;;;;;;5038566;28;20033;-69
2023/12/05 03:34:25;;;;;;;1.58;1.20;;;19.60;50.60;;;;;;5038970;28;20401;-68
2023/12/05 03:36:51;;;;;;;1.42;1.20;;;19.60;50.70;;;;;;5038399;28;20136;-69
2023/12/05 03:39:16;;;;;;;1.80;1.30;;;19.60;50.70;;;;;;5040400;28;20043;-68
2023/12/05 03:41:47;;;;;;;1.90;1.30;;;19.50;50.70;;;;;;5036974;28;20524;-67
2023/12/05 03:44:13;;;;;;;1.70;1.40;;;19.50;50.70;;;;;;5037951;28;20075;-67
2023/12/05 03:46:38;;;;;;;1.80;1.30;;;19.50;50.80;;;;;;5037488;28;20401;-67
2023/12/05 03:49:04;;;;;;;1.67;1.20;;;19.50;50.80;;;;;;5036440;28;20382;-67
2023/12/05 03:51:30;;;;;;;1.65;1.30;;;19.50;50.90;;;;;;5037125;28;20089;-67
2023/12/05 03:53:56;;;;;;;1.80;1.20;;;19.40;50.90;;;;;;5038772;28;20496;-67
2023/12/05 03:56:21;;;;;;;1.75;1.20;;;19.40;50.90;;;;;;5038137;28;20040;-67
2023/12/05 03:58:47;;;;;;;1.83;1.30;;;19.40;50.90;;;;;;5041809;28;20063;-67
2023/12/05 04:01:12;;;;;;;1.60;1.27;;;19.40;51.00;;;;;;5037799;28;20028;-65
2023/12/05 04:03:38;;;;;;;1.70;1.20;;;19.40;51.00;;;;;;5037926;28;20034;-66
2023/12/05 04:06:04;;;;;;;1.42;1.13;;;19.40;51.00;;;;;;5039075;28;20802;-66
2023/12/05 04:08:29;;;;;;;1.80;1.30;;;19.40;51.00;;;;;;5036649;28;20033;-66
2023/12/05 04:10:55;;;;;;;1.90;1.30;;;19.40;51.10;;;;;;5037215;28;20036;-66
2023/12/05 04:13:20;;;;;;;1.92;1.20;;;19.40;51.10;;;;;;5041064;28;20029;-66
2023/12/05 04:15:49;;;;;;;1.98;1.25;;;19.40;51.10;;;;;;5039709;28;20024;-66
2023/12/05 04:18:15;;;;;;;1.83;1.40;;;19.40;51.10;;;;;;5036609;28;20116;-67
2023/12/05 04:20:40;;;;;;;1.73;1.20;;;19.40;51.10;;;;;;5040164;28;20159;-65
2023/12/05 04:23:06;;;;;;;1.58;1.15;;;19.40;51.10;;;;;;5038801;28;20047;-66
2023/12/05 04:25:31;;;;;;;1.67;1.20;;;19.40;51.10;;;;;;5038003;28;20026;-66
2023/12/05 04:27:57;;;;;;;1.70;1.23;;;19.40;51.10;;;;;;5037147;28;20045;-66
2023/12/05 04:30:22;;;;;;;1.58;1.10;;;19.40;51.20;;;;;;5037405;28;20481;-66
2023/12/05 04:32:48;;;;;;;1.73;1.15;;;19.40;51.20;;;;;;5036824;28;20044;-66
2023/12/05 04:35:15;;;;;;;1.90;1.27;;;19.40;51.20;;;;;;5039129;28;20029;-66
2023/12/05 04:37:40;;;;;;;1.67;1.20;;;19.40;51.20;;;;;;5037923;28;20095;-66
2023/12/05 04:40:08;;;;;;;1.50;1.20;;;19.40;51.20;;;;;;5037531;28;20025;-66
2023/12/05 04:42:33;;;;;;;1.55;1.20;;;19.40;51.30;;;;;;5039264;28;20017;-65
2023/12/05 04:44:59;;;;;;;1.70;1.20;;;19.40;51.30;;;;;;5037200;28;20025;-66
2023/12/05 04:47:25;;;;;;;1.48;1.10;;;19.40;51.30;;;;;;5036885;28;20032;-66
2023/12/05 04:49:50;;;;;;;1.50;1.05;;;19.40;51.30;;;;;;5038754;28;20030;-66
2023/12/05 04:52:16;;;;;;;1.77;1.00;;;19.30;51.20;;;;;;5038701;28;20083;-66
2023/12/05 04:54:41;;;;;;;1.67;1.20;;;19.30;51.30;;;;;;5040163;28;20021;-66
2023/12/05 04:57:07;;;;;;;1.45;1.08;;;19.30;51.30;;;;;;5039551;28;20481;-67
2023/12/05 04:59:33;;;;;;;2.05;1.30;;;19.30;51.30;;;;;;5038632;28;20021;-66
2023/12/05 05:01:58;;;;;;;2.10;1.52;;;19.30;51.30;;;;;;5039139;28;20433;-65
2023/12/05 05:04:24;;;;;;;1.65;1.20;;;19.30;51.30;;;;;;5035743;28;20044;-65
2023/12/05 05:06:49;;;;;;;1.67;1.20;;;19.30;50.90;;;;;;5038488;28;20561;-65
2023/12/05 05:09:15;;;;;;;1.73;1.20;;;19.30;51.40;;;;;;5037180;28;20017;-66
2023/12/05 05:11:40;;;;;;;1.75;1.10;;;19.30;51.40;;;;;;5038157;28;20059;-67
2023/12/05 05:14:06;;;;;;;1.63;1.27;;;19.30;51.40;;;;;;5036923;28;20060;-67
2023/12/05 05:16:32;;;;;;;1.77;1.15;;;19.30;51.50;;;;;;5039291;28;20128;-67
2023/12/05 05:18:59;;;;;;;1.98;1.23;;;19.30;51.50;;;;;;5035684;28;20129;-68
2023/12/05 05:21:25;;;;;;;1.38;1.10;;;19.30;51.50;;;;;;5036700;28;20113;-68
2023/12/05 05:23:50;;;;;;;1.23;1.02;;;19.30;51.50;;;;;;5036206;28;20491;-67
2023/12/05 05:26:16;;;;;;;1.88;1.30;;;19.30;51.50;;;;;;5037103;28;20025;-68
2023/12/05 05:28:41;;;;;;;2.00;1.50;;;19.30;51.50;;;;;;5036312;28;20374;-67
2023/12/05 05:31:07;;;;;;;1.90;1.20;;;19.30;51.60;;;;;;5042214;28;20029;-67
2023/12/05 05:33:32;;;;;;;1.58;1.17;;;19.30;51.60;;;;;;5039699;28;20064;-68
2023/12/05 05:35:58;;;;;;;2.05;1.40;;;19.30;51.60;;;;;;5040491;28;20080;-68
2023/12/05 05:38:24;;;;;;;1.33;1.08;;;19.30;51.70;;;;;;5041558;28;20026;-68
2023/12/05 05:40:49;;;;;;;1.85;1.35;;;19.30;51.70;;;;;;5040801;28;20025;-67
2023/12/05 05:43:15;;;;;;;1.67;1.30;;;19.30;51.70;;;;;;5040091;28;20759;-67
2023/12/05 05:45:40;;;;;;;1.67;1.23;;;19.30;51.70;;;;;;5040404;28;20032;-67
2023/12/05 05:48:06;;;;;;;1.42;1.10;;;19.30;51.70;;;;;;5040445;28;20024;-67
2023/12/05 05:50:32;;;;;;;2.65;1.50;;;19.20;51.70;;;;;;5040360;28;20389;-67
2023/12/05 05:52:57;;;;;;;2.28;1.38;;;19.30;51.80;;;;;;5039875;28;20044;-67
2023/12/05 05:55:24;;;;;;;1.67;1.13;;;19.30;51.80;;;;;;5043239;28;20021;-67
2023/12/05 05:57:50;;;;;;;1.85;1.25;;;19.30;51.80;;;;;;5042168;28;20096;-68
2023/12/05 06:00:17;;;;;;;2.30;1.40;;;19.30;51.90;;;;;;5039801;28;20132;-68
2023/12/05 06:02:43;;;;;;;1.60;1.23;;;19.20;51.80;;;;;;5040479;28;20415;-68
2023/12/05 06:05:08;;;;;;;1.88;1.35;;;19.30;51.90;;;;;;5037714;28;20109;-67
2023/12/05 06:07:34;;;;;;;2.42;1.60;;;19.20;52.10;;;;;;5042001;28;20128;-67
2023/12/05 06:10:00;;;;;;;1.98;1.40;;;19.30;54.20;;;;;;5042485;28;20040;-66
2023/12/05 06:12:26;;;;;;;1.73;1.40;;;19.30;54.00;;;;;;5041062;28;20108;-64
2023/12/05 06:14:52;;;;;;;1.58;1.23;;;19.30;54.40;;;;;;5041359;28;20025;-63
2023/12/05 06:17:17;;;;;;;2.63;1.55;;;19.30;54.60;;;;;;5041988;28;20091;-64
2023/12/05 06:19:43;;;;;;;1.88;1.30;;;19.30;54.70;;;;;;5044698;28;20398;-64
2023/12/05 06:22:09;;;;;;;2.60;1.50;;;19.30;54.50;;;;;;5043922;28;20028;-66
2023/12/05 06:24:34;;;;;;;3.55;1.50;;;19.40;55.00;;;;;;5042439;28;20037;-67
2023/12/05 06:27:00;;;;;;;2.17;1.50;;;19.40;55.40;;;;;;5041848;28;20036;-66
2023/12/05 06:29:26;;;;;;;3.28;1.80;;;19.40;55.40;;;;;;5043081;28;20091;-66
2023/12/05 06:31:51;;;;;;;3.22;1.58;;;19.40;55.20;;;;;;5040875;28;20080;-67
2023/12/05 06:34:17;;;;;;;2.75;1.67;;;19.40;54.70;;;;;;5037566;28;20033;-67
2023/12/05 06:36:42;;;;;;;2.67;1.45;;;19.40;54.40;;;;;;5038107;28;20044;-67
2023/12/05 06:39:08;;;;;;;3.63;1.70;;;19.40;54.20;;;;;;5041252;28;20029;-67
2023/12/05 06:41:35;;;;;;;2.38;1.30;;;19.40;54.20;;;;;;5042122;28;20013;-67
2023/12/05 06:44:02;;;;;;;3.28;1.52;;;19.50;54.00;;;;;;5044478;28;20032;-65
2023/12/05 06:46:28;;;;;;;3.58;1.60;;;19.50;53.80;;;;;;5047207;28;20025;-67
2023/12/05 06:48:53;;;;;;;3.50;1.45;;;19.50;53.80;;;;;;5047918;28;20023;-66
2023/12/05 06:51:19;;;;;;;2.80;1.63;;;19.50;53.60;;;;;;5042166;28;20041;-66
2023/12/05 06:53:47;;;;;;;2.78;1.58;;;19.50;53.70;;;;;;5046913;28;20797;-67
2023/12/05 06:56:15;;;;;;;3.22;1.58;;;19.50;53.60;;;;;;5049973;28;20021;-66
2023/12/05 06:58:41;;;;;;;4.07;1.48;;;19.60;53.50;;;;;;5039332;28;20029;-67
2023/12/05 07:01:07;;;;;;;2.05;1.30;;;19.60;53.50;;;;;;5042646;28;20064;-66
2023/12/05 07:03:33;;;;;;;2.50;1.50;;;19.60;53.40;;;;;;5039901;28;20029;-66
2023/12/05 07:05:59;;;;;;;2.28;1.48;;;19.60;53.50;;;;;;5040834;28;20377;-67
2023/12/05 07:08:24;;;;;;;3.30;1.50;;;19.60;53.40;;;;;;5040207;28;20029;-66
2023/12/05 07:10:50;;;;;;;3.40;1.50;;;19.70;53.70;;;;;;5040918;28;20025;-66
2023/12/05 07:13:15;;;;;;;2.65;1.40;;;19.70;53.60;;;;;;5039200;28;20465;-66
2023/12/05 07:15:42;;;;;;;3.50;1.50;;;19.70;53.40;;;;;;5039967;28;20412;-66
2023/12/05 07:18:08;;;;;;;2.97;1.80;;;19.70;53.20;;;;;;5039870;28;20026;-67
2023/12/05 07:20:34;;;;;;;3.42;1.80;;;19.80;53.20;;;;;;5039060;28;20040;-67
2023/12/05 07:22:59;;;;;;;3.35;1.60;;;19.70;53.00;;;;;;5038102;28;20600;-66
2023/12/05 07:25:25;;;;;;;3.65;1.70;;;19.70;53.30;;;;;;5039823;28;20037;-67
2023/12/05 07:27:51;;;;;;;3.75;1.42;;;19.80;53.50;;;;;;5037936;28;20056;-66
2023/12/05 07:30:16;;;;;;;2.25;1.50;;;19.80;53.20;;;;;;5041274;28;20032;-66
2023/12/05 07:32:42;;;;;;;3.88;1.85;;;19.80;53.20;;;;;;5039150;28;20307;-69
2023/12/05 07:35:08;;;;;;;4.05;1.65;;;19.80;53.60;;;;;;5037133;28;20116;-70
2023/12/05 07:37:33;;;;;;;3.10;1.60;;;19.80;53.10;;;;;;5036865;28;20053;-69
2023/12/05 07:39:59;;;;;;;2.78;1.70;;;19.80;53.00;;;;;;5037601;28;20039;-69
2023/12/05 07:42:25;;;;;;;2.40;1.50;;;19.90;53.10;;;;;;5037483;28;20033;-69
2023/12/05 07:44:51;;;;;;;4.75;1.58;;;19.90;53.00;;;;;;5039243;28;20033;-70
2023/12/05 07:47:16;;;;;;;2.95;1.60;;;19.90;53.00;;;;;;5040774;28;20114;-69
2023/12/05 07:49:44;;;;;;;3.00;1.40;;;19.90;52.80;;;;;;5035630;28;20485;-69
2023/12/05 07:52:09;;;;;;;3.03;1.50;;;19.90;52.90;;;;;;5038520;28;20086;-70
2023/12/05 07:54:35;;;;;;;2.30;1.40;;;19.90;52.70;;;;;;5037969;28;20380;-70
2023/12/05 07:57:00;;;;;;;2.28;1.50;;;19.90;52.90;;;;;;5037090;28;20055;-69
2023/12/05 07:59:26;;;;;;;3.08;1.60;;;20.00;53.10;;;;;;5037079;28;20029;-69
2023/12/05 08:01:52;;;;;;;5.22;1.77;;;20.00;52.80;;;;;;5037039;28;20034;-69
2023/12/05 08:04:17;;;;;;;3.10;1.73;;;20.00;52.80;;;;;;5037537;28;20492;-69
2023/12/05 08:06:43;;;;;;;2.47;1.42;;;20.00;52.70;;;;;;5036654;28;20029;-69
2023/12/05 08:09:09;;;;;;;3.10;1.52;;;20.00;53.10;;;;;;5037943;28;20021;-70
2023/12/05 08:11:35;;;;;;;2.92;1.60;;;20.10;52.80;;;;;;5036804;28;20056;-69
2023/12/05 08:14:02;;;;;;;3.17;1.80;;;20.00;52.70;;;;;;5038197;28;20067;-69
2023/12/05 08:16:27;;;;;;;2.88;1.35;;;20.00;52.60;;;;;;5040341;28;20030;-70
2023/12/05 08:18:53;;;;;;;2.28;1.52;;;20.00;52.50;;;;;;5036856;28;20025;-70
2023/12/05 08:21:18;;;;;;;2.65;1.50;;;20.00;52.50;;;;;;5036277;28;20104;-70
2023/12/05 08:23:44;;;;;;;2.38;1.38;;;20.10;52.50;;;;;;5037450;28;20026;-70
2023/12/05 08:26:09;;;;;;;3.15;1.50;;;20.10;52.50;;;;;;5040292;28;20035;-70
2023/12/05 08:28:36;;;;;;;3.15;1.58;;;20.00;52.40;;;;;;5039597;28;20083;-70
2023/12/05 08:31:02;;;;;;;2.95;1.45;;;20.10;52.50;;;;;;5040292;28;20522;-66
2023/12/05 08:33:28;;;;;;;2.85;1.40;;;20.10;52.50;;;;;;5037860;28;20037;-67
2023/12/05 08:35:53;;;;;;;3.67;1.55;;;20.10;52.50;;;;;;5035796;28;20061;-67
2023/12/05 08:38:19;;;;;;;2.55;1.50;;;20.10;52.40;;;;;;5037707;28;20026;-68
2023/12/05 08:40:44;;;;;;;3.13;1.60;;;20.10;52.50;;;;;;5038856;28;20405;-65
2023/12/05 08:43:10;;;;;;;2.22;1.50;;;20.10;52.50;;;;;;5038375;28;20466;-66
2023/12/05 08:45:36;;;;;;;3.20;1.90;;;20.10;52.40;;;;;;5038061;28;20033;-65
2023/12/05 08:48:01;;;;;;;2.25;1.30;;;20.10;52.30;;;;;;5038129;28;20485;-64
2023/12/05 08:50:27;;;;;;;2.45;1.50;;;20.20;52.40;;;;;;5037256;28;20041;-65
2023/12/05 08:52:52;;;;;;;2.60;1.38;;;20.20;52.40;;;;;;5038941;28;20335;-65
2023/12/05 08:55:18;;;;;;;1.98;1.38;;;20.20;52.40;;;;;;5036337;28;20061;-66
2023/12/05 08:57:44;;;;;;;2.10;1.40;;;20.20;52.50;;;;;;5038471;28;20366;-65
2023/12/05 09:00:10;;;;;;;3.42;1.40;;;20.20;52.60;;;;;;5036014;28;20026;-65
2023/12/05 09:02:35;;;;;;;1.65;1.13;;;20.20;52.50;;;;;;5038983;28;20033;-65
2023/12/05 09:05:03;;;;;;;3.22;1.50;;;20.20;52.50;;;;;;5039506;28;20051;-65
2023/12/05 09:07:28;;;;;;;2.00;1.25;;;20.20;52.40;;;;;;5041502;28;20469;-65
2023/12/05 09:09:54;;;;;;;2.70;1.48;;;20.20;52.40;;;;;;5042499;28;20075;-64
2023/12/05 09:12:19;;;;;;;2.80;1.48;;;20.30;52.50;;;;;;5042471;28;20099;-65
2023/12/05 09:14:45;;;;;;;1.85;1.20;;;20.20;52.40;;;;;;5043261;28;20475;-65
2023/12/05 09:17:11;;;;;;;1.90;1.33;;;20.30;52.40;;;;;;5041578;28;20025;-65
2023/12/05 09:19:37;;;;;;;2.92;1.50;;;20.20;52.40;;;;;;5039040;28;20040;-66
2023/12/05 09:22:03;;;;;;;3.33;1.23;;;20.30;52.40;;;;;;5041253;28;20013;-65
2023/12/05 09:24:29;;;;;;;1.88;1.30;;;20.30;52.40;;;;;;5040002;28;20033;-65
2023/12/05 09:26:55;;;;;;;2.70;1.40;;;20.30;52.50;;;;;;5039627;28;20362;-64
2023/12/05 09:29:21;;;;;;;2.00;1.30;;;20.30;52.40;;;;;;5041603;28;20079;-64
2023/12/05 09:31:46;;;;;;;3.83;1.52;;;20.30;52.40;;;;;;5039113;28;20516;-64
2023/12/05 09:34:12;;;;;;;3.63;1.70;;;20.30;52.40;;;;;;5038290;28;20034;-63
2023/12/05 09:36:38;;;;;;;2.28;1.40;;;20.30;52.40;;;;;;5039246;28;20079;-63
2023/12/05 09:39:04;;;;;;;3.50;1.50;;;20.30;52.40;;;;;;5040617;28;20032;-63
2023/12/05 09:41:31;;;;;;;1.88;1.23;;;20.30;52.40;;;;;;5040687;28;20056;-63
2023/12/05 09:44:03;;;;;;;2.80;1.42;;;20.30;52.40;;;;;;5038997;28;20040;-63
2023/12/05 09:46:33;;;;;;;1.90;1.23;;;20.30;52.40;;;;;;5040142;28;20401;-62
2023/12/05 09:49:04;;;;;;;3.00;1.50;;;20.30;52.40;;;;;;5039896;28;20032;-64
2023/12/05 09:51:31;;;;;;;2.20;1.40;;;20.40;52.40;;;;;;5040181;28;20051;-68
2023/12/05 09:53:58;;;;;;;2.22;1.40;;;20.40;52.50;;;;;;5040960;28;20045;-67
2023/12/05 09:56:25;;;;;;;2.38;1.23;;;20.40;52.40;;;;;;5042335;28;20120;-68
2023/12/05 09:58:51;;;;;;;2.10;1.33;;;20.40;52.40;;;;;;5041707;28;20032;-67
2023/12/05 10:01:19;;;;;;;2.72;1.50;;;20.40;52.30;;;;;;5042253;28;20017;-67
2023/12/05 10:03:52;;;;;;;1.80;1.33;;;20.40;52.30;;;;;;5041602;28;20025;-67
2023/12/05 10:06:19;;;;;;;2.38;1.30;;;20.40;52.40;;;;;;5038749;28;20215;-67
2023/12/05 10:08:47;;;;;;;2.75;1.50;;;20.40;52.30;;;;;;5042574;28;20393;-67
2023/12/05 10:11:13;;;;;;;3.25;1.38;;;20.40;52.30;;;;;;5042798;28;20385;-68
2023/12/05 10:13:40;;;;;;;3.20;1.30;;;20.40;52.40;;;;;;5039899;28;20025;-68
2023/12/05 10:16:06;;;;;;;2.78;1.55;;;20.40;52.40;;;;;;5040303;28;20022;-68
2023/12/05 10:18:33;;;;;;;2.28;1.38;;;20.50;52.40;;;;;;5039435;28;20021;-68
2023/12/05 10:20:59;;;;;;;2.08;1.45;;;20.40;52.30;;;;;;5040110;28;20032;-67
2023/12/05 10:23:24;;;;;;;2.15;1.40;;;20.50;52.30;;;;;;5041326;28;20039;-67
2023/12/05 10:25:51;;;;;;;1.85;1.33;;;20.50;52.40;;;;;;5040246;28;20024;-68
2023/12/05 10:28:17;;;;;;;2.50;1.65;;;20.50;52.30;;;;;;5042277;28;20057;-67
2023/12/05 10:30:43;;;;;;;2.55;1.52;;;20.50;52.30;;;;;;5038798;28;20122;-68
2023/12/05 10:33:10;;;;;;;2.20;1.45;;;20.50;52.30;;;;;;5039743;28;20029;-67
2023/12/05 10:35:36;;;;;;;2.33;1.60;;;20.50;52.40;;;;;;5039675;28;20598;-67
2023/12/05 10:38:06;;;;;;;2.90;1.42;;;20.50;52.20;;;;;;5040797;28;20047;-67
2023/12/05 10:40:55;;;;;;;2.72;1.25;;;20.50;52.10;;;;;;5039302;28;20033;-66
2023/12/05 10:43:23;;;;;;;3.08;1.60;;;20.50;52.10;;;;;;5038816;28;20029;-67
2023/12/05 10:45:49;;;;;;;2.20;1.35;;;20.50;52.10;;;;;;5038764;28;20041;-67
2023/12/05 10:48:16;;;;;;;2.67;1.58;;;20.50;52.00;;;;;;5041442;28;20084;-66
2023/12/05 10:50:43;;;;;;;2.28;1.58;;;20.50;52.00;;;;;;5041065;28;20033;-65
2023/12/05 10:53:10;;;;;;;2.38;1.60;;;20.50;52.00;;;;;;5039695;28;20037;-66
2023/12/05 10:55:35;;;;;;;2.95;1.50;;;20.50;52.00;;;;;;5042705;28;20029;-66
2023/12/05 10:58:02;;;;;;;2.40;1.65;;;20.50;52.00;;;;;;5040881;28;20556;-65
2023/12/05 11:00:31;;;;;;;2.47;1.50;;;20.50;52.00;;;;;;5041474;28;20132;-66
2023/12/05 11:02:57;;;;;;;2.15;1.58;;;20.50;52.00;;;;;;5038413;28;20029;-63
2023/12/05 11:05:23;;;;;;;2.15;1.50;;;20.50;52.00;;;;;;5038352;28;20092;-64
2023/12/05 11:07:50;;;;;;;2.60;1.40;;;20.50;52.00;;;;;;5041672;28;20029;-64
2023/12/05 11:10:16;;;;;;;2.72;1.60;;;20.60;52.00;;;;;;5037778;28;20056;-64
2023/12/05 11:12:47;;;;;;;2.10;1.40;;;20.60;52.00;;;;;;5040078;28;20028;-64
2023/12/05 11:15:15;;;;;;;2.58;1.60;;;20.60;52.00;;;;;;5038476;28;20372;-64
2023/12/05 11:17:48;;;;;;;3.13;1.70;;;20.60;52.00;;;;;;5040875;28;20022;-64
2023/12/05 11:20:23;;;;;;;2.75;1.70;;;20.60;52.00;;;;;;5037764;28;20416;-64
2023/12/05 11:23:23;;;;;;;2.83;1.70;;;20.60;52.00;;;;;;5039804;28;20522;-64
2023/12/05 11:25:57;;;;;;;2.95;1.75;;;20.60;52.00;;;;;;5038522;28;20032;-65
2023/12/05 11:28:26;;;;;;;2.53;1.63;;;20.60;52.10;;;;;;5036137;28;20481;-65
2023/12/05 11:31:21;;;;;;;2.97;1.70;;;20.60;51.90;;;;;;5037496;28;20048;-63
2023/12/05 11:33:54;;;;;;;2.60;1.70;;;20.60;51.80;;;;;;5040367;28;20017;-65
2023/12/05 11:36:27;;;;;;;2.92;1.73;;;20.60;51.80;;;;;;5035008;28;20048;-65
2023/12/05 11:38:53;;;;;;;2.53;1.70;;;20.60;51.80;;;;;;5039397;28;20017;-64
2023/12/05 11:41:20;;;;;;;2.88;2.10;;;20.70;52.00;;;;;;5038836;28;20021;-64
2023/12/05 11:44:11;;;;;;;4.35;2.40;;;20.70;51.80;;;;;;5039438;28;20036;-65
2023/12/05 11:46:36;;;;;;;3.10;1.92;;;20.80;51.50;;;;;;5036464;28;20493;-65
2023/12/05 11:49:03;;;;;;;3.08;2.20;;;20.90;51.40;;;;;;5039930;28;20031;-65
2023/12/05 11:51:32;;;;;;;3.13;2.22;;;21.00;51.30;;;;;;5038385;28;20413;-66
2023/12/05 11:54:02;;;;;;;3.05;2.25;;;21.10;51.20;;;;;;5037911;28;20080;-65
2023/12/05 11:56:28;;;;;;;;;;;21.10;51.10;;;;;;5038862;28;20083;-65
2023/12/05 11:59:13;;;;;;;4.05;2.15;;;21.20;51.00;;;;;;5040171;28;19913;-65
2023/12/05 12:01:40;;;;;;;3.15;2.45;;;21.30;51.00;;;;;;5036970;28;20047;-65
2023/12/05 12:04:22;;;;;;;3.30;2.33;;;21.40;50.80;;;;;;5040874;28;20453;-65
2023/12/05 12:06:49;;;;;;;3.40;2.40;;;21.40;50.70;;;;;;5038205;28;20328;-66
2023/12/05 12:09:15;;;;;;;3.38;2.50;;;21.50;50.50;;;;;;5038049;28;20402;-66
2023/12/05 12:11:42;;;;;;;3.72;2.30;;;21.50;50.40;;;;;;5037859;28;20032;-65
2023/12/05 12:14:16;;;;;;;3.20;2.35;;;21.60;50.30;;;;;;5039332;28;20036;-65
2023/12/05 12:16:42;;;;;;;5.13;2.40;;;21.60;50.20;;;;;;5037198;28;20028;-66
2023/12/05 12:19:12;;;;;;;3.28;2.40;;;21.70;50.20;;;;;;5040073;28;20052;-65
2023/12/05 12:21:41;;;;;;;3.38;2.28;;;21.70;50.20;;;;;;5036756;28;20026;-66
2023/12/05 12:24:08;;;;;;;2.95;2.13;;;21.80;50.10;;;;;;5037442;28;20330;-66
2023/12/05 12:26:34;;;;;;;3.03;2.20;;;21.80;50.00;;;;;;5041171;28;20085;-66
2023/12/05 12:29:07;;;;;;;3.95;2.40;;;21.80;50.00;;;;;;5037880;28;20116;-65
2023/12/05 12:31:33;;;;;;;3.10;2.20;;;21.80;50.00;;;;;;5037640;28;20119;-66
2023/12/05 12:33:58;;;;;;;2.72;1.80;;;21.70;50.00;;;;;;5038519;28;20112;-65
2023/12/05 12:36:25;;;;;;;3.67;2.10;;;21.70;50.10;;;;;;5037061;28;20108;-65
2023/12/05 12:38:50;;;;;;;3.20;2.28;;;21.70;50.10;;;;;;5039941;28;20588;-66
2023/12/05 12:41:16;;;;;;;3.03;2.13;;;21.70;50.10;;;;;;5041529;28;20104;-65
2023/12/05 12:43:46;;;;;;;3.40;2.33;;;21.70;50.10;;;;;;5040254;28;20147;-65
2023/12/05 12:46:13;;;;;;;3.58;2.30;;;21.70;50.30;;;;;;5041406;28;20040;-65